Time;durP1;ratioP1;P1;durP2;ratioP2;P2;SDS_P1;SDS_P2;PMS_P1;PMS_P2;Temp;Humidity;BMP_temperature;BMP_pressure;BME280_temperature;BME280_humidity;BME280_pressure;Samples;Min_cycle;Max_cycle;Signal;HPM_P1;HPM_P2
2021/07/18 00:01:11;;;;;;;1.10;0.90;;;;;;;;;;5012768;28;20030;-54
2021/07/18 00:03:37;;;;;;;1.38;0.98;;;;;;;;;;5012778;28;20022;-55
2021/07/18 00:06:03;;;;;;;2.05;1.00;;;;;;;;;;5012388;28;20030;-55
2021/07/18 00:08:29;;;;;;;1.38;1.00;;;;;;;;;;5012413;28;20053;-54
2021/07/18 00:10:55;;;;;;;1.38;0.80;;;;;;;;;;5012624;28;20026;-53
2021/07/18 00:13:21;;;;;;;1.17;0.77;;;;;;;;;;5012632;28;20047;-51
2021/07/18 00:15:48;;;;;;;1.13;0.93;;;23.80;90.40;;;;;;5012812;28;20026;-54
2021/07/18 00:18:14;;;;;;;2.20;0.90;;;;;;;;;;5012621;28;20425;-54
2021/07/18 00:20:40;;;;;;;1.30;0.90;;;;;;;;;;5012560;28;20076;-54
2021/07/18 00:23:06;;;;;;;4.93;0.95;;;;;;;;;;5012538;28;20062;-55
2021/07/18 00:25:32;;;;;;;1.10;0.60;;;;;;;;;;5012532;28;20033;-55
2021/07/18 00:27:59;;;;;;;1.25;1.02;;;23.70;86.20;;;;;;5012384;28;20049;-55
2021/07/18 00:30:25;;;;;;;1.63;0.57;;;;;;;;;;5012501;28;20033;-54
2021/07/18 00:32:51;;;;;;;1.25;1.00;;;;;;;;;;5012459;28;20060;-53
2021/07/18 00:35:17;;;;;;;1.50;1.00;;;;;;;;;;5012471;28;20018;-55
2021/07/18 00:37:43;;;;;;;0.98;0.88;;;;;;;;;;5012412;28;20037;-54
2021/07/18 00:40:09;;;;;;;2.00;1.10;;;;;;;;;;5012423;28;20022;-54
2021/07/18 00:42:36;;;;;;;1.40;0.90;;;23.50;89.80;;;;;;5012403;28;20504;-53
2021/07/18 00:45:04;;;;;;;2.08;0.80;;;23.30;89.30;;;;;;5012333;28;20022;-54
2021/07/18 00:47:30;;;;;;;1.15;0.70;;;23.70;88.20;;;;;;5012228;28;20026;-55
2021/07/18 00:49:56;;;;;;;1.85;0.95;;;;;;;;;;5012283;28;20176;-50
2021/07/18 00:52:22;;;;;;;1.55;1.02;;;;;;;;;;5012277;28;20061;-54
2021/07/18 00:54:48;;;;;;;2.70;1.00;;;;;;;;;;5012193;28;20033;-55
2021/07/18 00:57:15;;;;;;;1.27;0.80;;;;;;;;;;5012441;28;20030;-55
2021/07/18 00:59:41;;;;;;;1.92;1.13;;;;;;;;;;5012236;28;20030;-55
2021/07/18 01:02:07;;;;;;;2.53;1.10;;;;;;;;;;5012416;28;20080;-53
2021/07/18 01:04:33;;;;;;;1.65;0.98;;;;;;;;;;5012314;28;20076;-55
2021/07/18 01:06:59;;;;;;;1.88;1.00;;;;;;;;;;5012108;28;20030;-55
2021/07/18 01:09:25;;;;;;;1.20;0.98;;;;;;;;;;5011854;28;20046;-55
2021/07/18 01:11:52;;;;;;;1.80;1.05;;;;;;;;;;5012259;28;20072;-53
2021/07/18 01:14:18;;;;;;;0.70;0.70;;;;;;;;;;5012117;28;20029;-54
2021/07/18 01:16:45;;;;;;;0.98;0.80;;;;;;;;;;5012062;28;20077;-53
2021/07/18 01:19:12;;;;;;;1.08;0.90;;;23.50;89.70;;;;;;5015501;28;20033;-55
2021/07/18 01:21:41;;;;;;;1.45;1.35;;;23.50;89.40;;;;;;5015578;28;20026;-55
2021/07/18 01:24:07;;;;;;;1.85;0.90;;;;;;;;;;5015510;28;20030;-54
2021/07/18 01:26:33;;;;;;;0.98;0.68;;;;;;;;;;5015517;28;20030;-51
2021/07/18 01:28:59;;;;;;;1.15;1.00;;;;;;;;;;5015372;28;20505;-55
2021/07/18 01:31:25;;;;;;;1.23;1.00;;;;;;;;;;5015341;28;20026;-54
2021/07/18 01:33:51;;;;;;;1.17;1.00;;;;;;;;;;5015328;28;20036;-50
2021/07/18 01:36:18;;;;;;;1.33;1.10;;;23.50;89.50;;;;;;5015591;28;20072;-53
2021/07/18 01:38:44;;;;;;;4.07;1.15;;;;;;;;;;5015286;28;20081;-53
2021/07/18 01:41:10;;;;;;;2.42;1.10;;;;;;;;;;5015139;28;20038;-53
2021/07/18 01:43:36;;;;;;;2.42;1.10;;;;;;;;;;5015157;28;20060;-55
2021/07/18 01:46:02;;;;;;;1.13;1.02;;;;;;;;;;5015112;28;20034;-54
2021/07/18 01:48:28;;;;;;;2.63;1.13;;;;;;;;;;5014971;28;20034;-51
2021/07/18 01:50:54;;;;;;;1.33;1.20;;;;;;;;;;5014976;28;20025;-53
2021/07/18 01:53:20;;;;;;;1.58;1.10;;;;;;;;;;5014940;28;20041;-51
2021/07/18 01:55:53;;;;;;;1.63;0.95;;;23.60;90.10;;;;;;5014941;28;20558;-54
2021/07/18 01:58:19;;;;;;;1.83;1.05;;;;;;;;;;5014971;28;20030;-55
2021/07/18 02:00:45;;;;;;;1.55;0.95;;;;;;;;;;5014847;28;20030;-54
2021/07/18 02:03:11;;;;;;;1.00;0.90;;;;;;;;;;5014761;28;20108;-54
2021/07/18 02:05:37;;;;;;;1.73;1.00;;;;;;;;;;5014806;28;20109;-52
2021/07/18 02:08:03;;;;;;;2.67;1.30;;;;;;;;;;5014391;28;20048;-54
2021/07/18 02:10:29;;;;;;;2.65;1.02;;;;;;;;;;5014657;28;20034;-53
2021/07/18 02:12:55;;;;;;;2.38;1.13;;;;;;;;;;5014578;28;20081;-52
2021/07/18 02:15:21;;;;;;;1.17;0.90;;;23.40;89.60;;;;;;5014488;28;20038;-55
2021/07/18 02:17:47;;;;;;;2.15;1.23;;;;;;;;;;5014493;28;20025;-54
2021/07/18 02:20:18;;;;;;;1.23;1.13;;;23.40;90.50;;;;;;5014470;28;20030;-55
2021/07/18 02:22:52;;;;;;;1.58;1.30;;;23.40;84.50;;;;;;5014721;28;20072;-50
2021/07/18 02:25:20;;;;;;;1.02;1.02;;;23.20;90.40;;;;;;5014354;28;20022;-55
2021/07/18 02:27:46;;;;;;;1.33;1.23;;;;;;;;;;5014267;28;20092;-52
2021/07/18 02:30:21;;;;;;;3.53;0.90;;;23.40;90.60;;;;;;5014358;28;20033;-53
2021/07/18 02:32:47;;;;;;;0.82;0.80;;;;;;;;;;5014284;28;20026;-55
2021/07/18 02:35:14;;;;;;;1.42;1.20;;;23.40;90.50;;;;;;5014146;28;20029;-54
2021/07/18 02:37:41;;;;;;;1.52;1.10;;;23.40;90.10;;;;;;5014160;28;20106;-54
2021/07/18 02:40:08;;;;;;;0.95;0.95;;;23.40;90.40;;;;;;5014124;28;20030;-54
2021/07/18 02:42:35;;;;;;;1.20;0.75;;;23.40;88.30;;;;;;5014332;28;20093;-53
2021/07/18 02:45:01;;;;;;;1.38;1.10;;;;;;;;;;5013974;28;20033;-55
2021/07/18 02:47:27;;;;;;;1.80;0.90;;;;;;;;;;5014004;28;20037;-53
2021/07/18 02:49:53;;;;;;;1.15;0.98;;;;;;;;;;5013827;28;20038;-52
2021/07/18 02:52:19;;;;;;;1.30;0.93;;;;;;;;;;5013831;28;20030;-55
2021/07/18 02:54:45;;;;;;;1.17;1.00;;;;;;;;;;5014065;28;20084;-55
2021/07/18 02:57:11;;;;;;;1.13;0.80;;;;;;;;;;5014013;28;20026;-52
2021/07/18 02:59:37;;;;;;;0.88;0.88;;;;;;;;;;5013717;28;20045;-54
2021/07/18 03:02:03;;;;;;;1.58;0.88;;;;;;;;;;5013706;28;20037;-55
2021/07/18 03:04:29;;;;;;;1.73;0.98;;;23.30;88.90;;;;;;5013632;28;20034;-51
2021/07/18 03:06:56;;;;;;;2.78;1.23;;;;;;;;;;5013629;28;20018;-53
2021/07/18 03:09:23;;;;;;;0.93;0.85;;;;;;;;;;5013321;28;20053;-55
2021/07/18 03:11:52;;;;;;;1.60;1.20;;;23.60;90.90;;;;;;5013548;28;20378;-53
2021/07/18 03:14:19;;;;;;;2.78;1.15;;;23.30;90.60;;;;;;5013451;28;20104;-54
2021/07/18 03:16:45;;;;;;;1.55;1.00;;;;;;;;;;5013434;28;20026;-50
2021/07/18 03:19:12;;;;;;;2.28;1.27;;;23.30;91.00;;;;;;5013431;28;20034;-54
2021/07/18 03:21:38;;;;;;;0.95;0.90;;;;;;;;;;5013374;28;20026;-55
2021/07/18 03:24:04;;;;;;;1.48;0.90;;;;;;;;;;5013615;28;20116;-53
2021/07/18 03:26:30;;;;;;;1.33;1.23;;;;;;;;;;5013308;28;20056;-54
2021/07/18 03:28:56;;;;;;;1.40;1.30;;;;;;;;;;5013206;28;20041;-55
2021/07/18 03:31:22;;;;;;;1.08;1.00;;;;;;;;;;5013161;28;20022;-53
2021/07/18 03:33:48;;;;;;;1.35;1.08;;;;;;;;;;5013136;28;20034;-53
2021/07/18 03:36:14;;;;;;;2.63;1.15;;;;;;;;;;5013104;28;20025;-53
2021/07/18 03:38:41;;;;;;;1.67;1.00;;;;;;;;;;5013033;28;20113;-54
2021/07/18 03:41:07;;;;;;;1.55;1.00;;;;;;;;;;5012432;28;20092;-55
2021/07/18 03:43:33;;;;;;;1.00;1.00;;;;;;;;;;5012940;28;20026;-55
2021/07/18 03:45:59;;;;;;;1.63;1.10;;;;;;;;;;5012970;28;20018;-53
2021/07/18 03:48:25;;;;;;;1.88;0.98;;;;;;;;;;5012834;28;20489;-52
2021/07/18 03:50:51;;;;;;;1.98;1.00;;;;;;;;;;5012893;28;20121;-52
2021/07/18 03:53:17;;;;;;;1.17;1.08;;;;;;;;;;5012862;28;20038;-53
2021/07/18 03:55:43;;;;;;;1.17;0.77;;;;;;;;;;5012865;28;20032;-54
2021/07/18 03:58:09;;;;;;;1.00;0.90;;;;;;;;;;5012877;28;20104;-55
2021/07/18 04:00:35;;;;;;;0.70;0.70;;;;;;;;;;5012761;28;20061;-54
2021/07/18 04:03:01;;;;;;;1.45;0.70;;;;;;;;;;5012757;28;20461;-55
2021/07/18 04:05:27;;;;;;;0.90;0.90;;;;;;;;;;5012724;28;20033;-55
2021/07/18 04:07:53;;;;;;;1.33;1.08;;;;;;;;;;5012428;28;20080;-51
2021/07/18 04:10:19;;;;;;;1.13;1.00;;;;;;;;;;5012749;28;20029;-55
2021/07/18 04:12:47;;;;;;;1.40;1.00;;;;;;;;;;5012646;28;20018;-53
2021/07/18 04:15:13;;;;;;;1.92;0.63;;;23.10;89.30;;;;;;5012627;28;20022;-54
2021/07/18 04:17:39;;;;;;;1.15;0.77;;;;;;;;;;5012622;28;20022;-54
2021/07/18 04:20:06;;;;;;;1.15;1.02;;;23.20;90.20;;;;;;5012842;28;20025;-54
2021/07/18 04:22:32;;;;;;;2.00;1.13;;;;;;;;;;5012538;28;20033;-52
2021/07/18 04:24:58;;;;;;;1.75;0.88;;;;;;;;;;5012718;28;20022;-55
2021/07/18 04:27:24;;;;;;;1.35;0.80;;;;;;;;;;5012515;28;20104;-52
2021/07/18 04:29:50;;;;;;;1.58;1.10;;;;;;;;;;5012398;28;20042;-55
2021/07/18 04:32:16;;;;;;;1.48;1.08;;;;;;;;;;5012435;28;20030;-54
2021/07/18 04:34:43;;;;;;;0.80;0.80;;;;;;;;;;5012374;28;20037;-56
2021/07/18 04:37:12;;;;;;;1.33;0.98;;;23.20;81.10;;;;;;5012731;28;20053;-52
2021/07/18 04:39:39;;;;;;;1.10;1.00;;;23.10;88.40;;;;;;5012458;28;20033;-55
2021/07/18 04:42:06;;;;;;;1.13;1.02;;;;;;;;;;5012413;28;20482;-52
2021/07/18 04:44:32;;;;;;;0.85;0.85;;;;;;;;;;5012407;28;20030;-55
2021/07/18 04:46:59;;;;;;;1.13;0.90;;;23.10;85.00;;;;;;5012358;28;20045;-52
2021/07/18 04:49:25;;;;;;;0.93;0.82;;;;;;;;;;5012230;28;20482;-55
2021/07/18 04:51:52;;;;;;;1.67;0.90;;;;;;;;;;5012257;28;20057;-55
2021/07/18 04:54:18;;;;;;;1.35;1.00;;;;;;;;;;5015933;28;20029;-55
2021/07/18 04:56:44;;;;;;;0.90;0.90;;;;;;;;;;5016035;28;20030;-54
2021/07/18 04:59:10;;;;;;;1.00;0.93;;;;;;;;;;5015972;28;20033;-54
2021/07/18 05:01:36;;;;;;;1.58;0.77;;;;;;;;;;5015931;28;20022;-52
2021/07/18 05:04:02;;;;;;;0.93;0.90;;;;;;;;;;5016129;28;20021;-54
2021/07/18 05:06:28;;;;;;;1.90;0.90;;;;;;;;;;5016113;28;20388;-54
2021/07/18 05:08:54;;;;;;;2.33;0.95;;;;;;;;;;5015518;28;20125;-55
2021/07/18 05:11:20;;;;;;;1.17;0.70;;;;;;;;;;5015819;28;20437;-55
2021/07/18 05:13:48;;;;;;;1.40;1.25;;;23.10;88.50;;;;;;5015709;28;20030;-53
2021/07/18 05:16:14;;;;;;;1.00;1.00;;;;;;;;;;5015646;28;20481;-55
2021/07/18 05:18:40;;;;;;;0.85;0.85;;;;;;;;;;5015645;28;20034;-54
2021/07/18 05:21:06;;;;;;;1.85;1.08;;;;;;;;;;5015599;28;20569;-55
2021/07/18 05:23:32;;;;;;;1.10;1.00;;;;;;;;;;5015679;28;20251;-54
2021/07/18 05:25:58;;;;;;;0.93;0.70;;;;;;;;;;5015510;28;20021;-55
2021/07/18 05:28:24;;;;;;;0.95;0.95;;;;;;;;;;5015410;28;20072;-55
2021/07/18 05:30:50;;;;;;;1.38;0.90;;;;;;;;;;5015448;28;20025;-51
2021/07/18 05:33:16;;;;;;;0.90;0.80;;;;;;;;;;5015369;28;20029;-52
2021/07/18 05:35:42;;;;;;;1.02;0.82;;;;;;;;;;5015360;28;20026;-55
2021/07/18 05:38:08;;;;;;;1.08;1.00;;;;;;;;;;5015310;28;20018;-55
2021/07/18 05:40:34;;;;;;;1.88;0.90;;;;;;;;;;5015240;28;20034;-53
2021/07/18 05:43:00;;;;;;;1.20;1.02;;;;;;;;;;5015180;28;20033;-55
2021/07/18 05:45:26;;;;;;;0.85;0.68;;;;;;;;;;5015194;28;20026;-54
2021/07/18 05:47:52;;;;;;;0.73;0.73;;;;;;;;;;5015033;28;20037;-55
2021/07/18 05:50:18;;;;;;;1.02;0.93;;;;;;;;;;5015063;28;20030;-53
2021/07/18 05:52:44;;;;;;;1.13;0.88;;;;;;;;;;5015032;28;20474;-52
2021/07/18 05:55:11;;;;;;;0.85;0.77;;;23.00;90.10;;;;;;5015242;28;20026;-50
2021/07/18 05:57:37;;;;;;;1.88;0.98;;;;;;;;;;5014959;28;20018;-55
2021/07/18 06:00:06;;;;;;;1.17;0.90;;;22.90;90.10;;;;;;5014897;28;20113;-54
2021/07/18 06:02:32;;;;;;;0.70;0.70;;;;;;;;;;5014843;28;20026;-54
2021/07/18 06:04:58;;;;;;;1.45;0.80;;;;;;;;;;5014279;28;20026;-54
2021/07/18 06:07:24;;;;;;;1.35;1.02;;;;;;;;;;5014789;28;20061;-53
2021/07/18 06:09:50;;;;;;;1.58;0.98;;;;;;;;;;5014504;28;20041;-54
2021/07/18 06:12:16;;;;;;;1.15;1.05;;;;;;;;;;5014648;28;20478;-53
2021/07/18 06:14:43;;;;;;;1.27;0.70;;;;;;;;;;5014633;28;20084;-55
2021/07/18 06:17:10;;;;;;;0.80;0.80;;;23.00;87.30;;;;;;5014571;28;20022;-54
2021/07/18 06:19:36;;;;;;;0.93;0.80;;;;;;;;;;5014557;28;20030;-54
2021/07/18 06:22:02;;;;;;;1.52;0.77;;;;;;;;;;5014436;28;20032;-49
2021/07/18 06:24:28;;;;;;;2.00;1.00;;;;;;;;;;5014452;28;20025;-52
2021/07/18 06:26:54;;;;;;;1.52;0.88;;;;;;;;;;5014327;28;20493;-53
2021/07/18 06:29:20;;;;;;;1.80;1.20;;;;;;;;;;5014187;28;20038;-54
2021/07/18 06:31:46;;;;;;;1.25;1.00;;;;;;;;;;5014512;28;20046;-54
2021/07/18 06:34:12;;;;;;;1.17;1.08;;;;;;;;;;5014199;28;20402;-55
2021/07/18 06:36:38;;;;;;;1.42;1.00;;;;;;;;;;5014144;28;20076;-55
2021/07/18 06:39:04;;;;;;;1.13;0.82;;;;;;;;;;5014137;28;20030;-54
2021/07/18 06:41:30;;;;;;;0.75;0.60;;;;;;;;;;5014102;28;20509;-52
2021/07/18 06:43:56;;;;;;;1.77;0.95;;;;;;;;;;4996467;28;20041;-55
2021/07/18 06:46:22;;;;;;;1.25;0.90;;;;;;;;;;5014005;28;20413;-55
2021/07/18 06:48:48;;;;;;;0.90;0.90;;;;;;;;;;5013768;28;20042;-55
2021/07/18 06:51:14;;;;;;;1.17;0.90;;;;;;;;;;5013912;28;20033;-52
2021/07/18 06:53:40;;;;;;;0.70;0.70;;;;;;;;;;5013967;28;20196;-55
2021/07/18 06:56:06;;;;;;;0.90;0.90;;;;;;;;;;5013806;28;20022;-53
2021/07/18 06:58:32;;;;;;;1.52;0.60;;;;;;;;;;5013788;28;20044;-55
2021/07/18 07:00:58;;;;;;;1.15;1.05;;;;;;;;;;5013792;28;20030;-54
2021/07/18 07:03:24;;;;;;;2.83;1.13;;;;;;;;;;5013662;28;20026;-55
2021/07/18 07:05:50;;;;;;;0.60;0.60;;;;;;;;;;5013672;28;20481;-52
2021/07/18 07:08:16;;;;;;;1.75;1.13;;;;;;;;;;5013354;28;20175;-54
2021/07/18 07:10:43;;;;;;;1.15;0.77;;;;;;;;;;5013772;28;20046;-54
2021/07/18 07:13:09;;;;;;;1.17;0.77;;;;;;;;;;5013475;28;20104;-52
2021/07/18 07:15:35;;;;;;;1.88;0.98;;;;;;;;;;5012587;28;20117;-53
2021/07/18 07:18:01;;;;;;;1.45;0.70;;;;;;;;;;5013387;28;20096;-51
2021/07/18 07:20:28;;;;;;;1.17;0.70;;;;;;;;;;5013383;28;20022;-53
2021/07/18 07:22:54;;;;;;;1.50;1.10;;;;;;;;;;5013604;28;20030;-52
2021/07/18 07:25:20;;;;;;;0.88;0.70;;;;;;;;;;5013304;28;20026;-54
2021/07/18 07:27:46;;;;;;;1.00;0.70;;;;;;;;;;5013159;28;20026;-51
2021/07/18 07:30:14;;;;;;;0.73;0.60;;;23.00;90.60;;;;;;5013510;28;20041;-50
2021/07/18 07:32:40;;;;;;;1.10;1.00;;;;;;;;;;5013242;28;20390;-52
2021/07/18 07:35:08;;;;;;;1.00;0.75;;;23.00;90.70;;;;;;5013202;28;20040;-54
2021/07/18 07:37:35;;;;;;;0.70;0.70;;;23.00;90.20;;;;;;5013293;28;20363;-53
2021/07/18 07:40:01;;;;;;;1.00;0.70;;;;;;;;;;5013171;28;20026;-51
2021/07/18 07:42:27;;;;;;;1.35;0.85;;;;;;;;;;5013218;28;20393;-49
2021/07/18 07:44:53;;;;;;;2.95;0.60;;;;;;;;;;5012832;28;20021;-54
2021/07/18 07:47:19;;;;;;;4.25;0.73;;;;;;;;;;5012972;28;20053;-54
2021/07/18 07:49:45;;;;;;;2.42;0.98;;;;;;;;;;5012628;28;20378;-54
2021/07/18 07:52:12;;;;;;;2.63;0.90;;;23.10;91.00;;;;;;5012731;28;20021;-52
2021/07/18 07:54:42;;;;;;;1.40;1.17;;;23.00;91.00;;;;;;5012919;28;20022;-53
2021/07/18 07:57:08;;;;;;;3.23;1.00;;;;;;;;;;5012934;28;20022;-52
2021/07/18 07:59:34;;;;;;;0.95;0.90;;;;;;;;;;5012643;28;20276;-53
2021/07/18 08:02:01;;;;;;;2.30;1.00;;;;;;;;;;5012565;28;20076;-54
2021/07/18 08:04:27;;;;;;;2.67;1.10;;;;;;;;;;5012569;28;20026;-51
2021/07/18 08:06:53;;;;;;;2.45;0.98;;;;;;;;;;5012520;28;20033;-54
2021/07/18 08:09:20;;;;;;;2.85;0.82;;;;;;;;;;5012302;28;20121;-53
2021/07/18 08:11:46;;;;;;;6.15;1.08;;;;;;;;;;5012740;28;20061;-51
2021/07/18 08:14:12;;;;;;;2.00;0.70;;;;;;;;;;5012433;28;20029;-50
2021/07/18 08:16:38;;;;;;;0.98;0.63;;;;;;;;;;5012711;28;20033;-52
2021/07/18 08:19:04;;;;;;;3.25;0.90;;;;;;;;;;5012391;28;20092;-53
2021/07/18 08:21:30;;;;;;;1.08;0.77;;;;;;;;;;5012410;28;20037;-53
2021/07/18 08:23:56;;;;;;;0.77;0.73;;;;;;;;;;5012360;28;20026;-54
2021/07/18 08:26:22;;;;;;;2.10;0.82;;;;;;;;;;5012924;28;20087;-50
2021/07/18 08:28:49;;;;;;;1.48;0.90;;;;;;;;;;5016304;28;20030;-53
2021/07/18 08:31:16;;;;;;;2.03;0.85;;;;;;;;;;5016192;28;20034;-51
2021/07/18 08:33:43;;;;;;;2.35;1.00;;;;;;;;;;5016085;28;20022;-52
2021/07/18 08:36:09;;;;;;;1.58;0.95;;;;;;;;;;5016040;28;20471;-53
2021/07/18 08:38:35;;;;;;;3.28;1.00;;;;;;;;;;5015962;28;20038;-53
2021/07/18 08:41:01;;;;;;;1.98;0.70;;;;;;;;;;5015874;28;20033;-50
2021/07/18 08:43:27;;;;;;;2.85;0.70;;;;;;;;;;5015963;28;20029;-52
2021/07/18 08:45:53;;;;;;;2.33;0.63;;;;;;;;;;5015893;28;20025;-50
2021/07/18 08:48:19;;;;;;;1.20;0.80;;;;;;;;;;5015904;28;20054;-54
2021/07/18 08:50:48;;;;;;;0.98;0.90;;;;;;;;;;5015867;28;20034;-51
2021/07/18 08:53:14;;;;;;;2.20;0.80;;;;;;;;;;5015972;28;20068;-54
2021/07/18 08:55:40;;;;;;;2.25;0.80;;;;;;;;;;5015799;28;20116;-53
2021/07/18 08:58:06;;;;;;;1.00;0.73;;;;;;;;;;5015984;28;20030;-54
2021/07/18 09:00:32;;;;;;;0.80;0.73;;;;;;;;;;5015825;28;20036;-51
2021/07/18 09:02:58;;;;;;;3.53;1.13;;;;;;;;;;5015815;28;20152;-54
2021/07/18 09:05:24;;;;;;;2.05;0.90;;;;;;;;;;5015690;28;20080;-55
2021/07/18 09:07:51;;;;;;;1.33;0.65;;;23.30;91.70;;;;;;5015628;28;20038;-54
2021/07/18 09:10:22;;;;;;;0.98;0.80;;;;;;;;;;5015725;28;20049;-55
2021/07/18 09:13:10;;;;;;;4.78;1.10;;;23.20;86.50;;;;;;5015373;28;20124;-55
2021/07/18 09:15:44;;;;;;;1.40;0.80;;;;;;;;;;5015165;28;20026;-54
2021/07/18 09:18:20;;;;;;;3.10;0.85;;;23.40;91.10;;;;;;5015357;28;20030;-55
2021/07/18 09:20:51;;;;;;;1.42;0.68;;;23.40;91.00;;;;;;5015526;28;20550;-50
2021/07/18 09:23:20;;;;;;;3.00;0.65;;;23.30;91.10;;;;;;5015624;28;20493;-51
2021/07/18 09:25:47;;;;;;;0.75;0.65;;;23.70;89.90;;;;;;5015522;28;20030;-55
2021/07/18 09:28:21;;;;;;;1.45;0.73;;;23.90;90.70;;;;;;5015256;28;20044;-53
2021/07/18 09:30:48;;;;;;;1.17;0.90;;;;;;;;;;5015650;28;20601;-51
2021/07/18 09:33:27;;;;;;;1.73;1.02;;;23.60;86.50;;;;;;5015427;28;20025;-53
2021/07/18 09:36:12;;;;;;;2.10;0.85;;;23.60;91.20;;;;;;5015351;28;20033;-55
2021/07/18 09:38:38;;;;;;;2.65;0.95;;;;;;;;;;5014550;28;20157;-52
2021/07/18 09:41:04;;;;;;;2.28;0.80;;;;;;;;;;5015179;28;20152;-51
2021/07/18 09:43:30;;;;;;;1.17;0.73;;;;;;;;;;5015238;28;20029;-54
2021/07/18 09:46:10;;;;;;;1.48;0.73;;;23.70;90.00;;;;;;5015226;28;20026;-54
2021/07/18 09:48:46;;;;;;;4.63;1.20;;;23.90;84.60;;;;;;5015120;28;20057;-52
2021/07/18 09:51:14;;;;;;;1.02;0.73;;;24.00;90.30;;;;;;5015091;28;20064;-54
2021/07/18 09:53:44;;;;;;;4.85;0.80;;;24.20;89.70;;;;;;5015121;28;20104;-54
2021/07/18 09:56:20;;;;;;;5.43;0.98;;;23.80;83.50;;;;;;5015124;28;20030;-55
2021/07/18 09:58:54;;;;;;;1.38;0.88;;;24.20;90.40;;;;;;5015112;28;20518;-53
2021/07/18 10:01:21;;;;;;;1.70;0.90;;;24.10;89.70;;;;;;5015086;28;20029;-54
2021/07/18 10:46:57;;;;;;;2.05;1.20;;;24.60;89.70;;;;;;5013956;28;20168;-51
2021/07/18 10:49:44;;;;;;;2.35;0.98;;;24.70;83.90;;;;;;5013867;28;20054;-52
2021/07/18 10:52:13;;;;;;;2.78;1.10;;;;;;;;;;5013754;28;20486;-49
2021/07/18 10:54:43;;;;;;;2.50;1.05;;;24.70;84.50;;;;;;5013815;28;20026;-51
2021/07/18 11:03:52;;;;;;;5.25;1.25;;;;;;;;;;5013786;28;20095;-53
2021/07/18 11:06:22;;;;;;;1.20;0.90;;;24.80;85.10;;;;;;5013405;28;20022;-53
2021/07/18 11:09:10;;;;;;;1.33;1.10;;;24.80;78.90;;;;;;5013276;28;20172;-52
2021/07/18 11:11:45;;;;;;;2.83;1.15;;;24.80;80.20;;;;;;5013602;28;20304;-54
2021/07/18 11:14:31;;;;;;;2.97;1.30;;;24.90;87.20;;;;;;5013310;28;20041;-53
2021/07/18 11:17:01;;;;;;;2.95;1.38;;;24.90;86.80;;;;;;5013249;28;20034;-53
2021/07/18 11:19:38;;;;;;;4.43;1.33;;;24.90;80.40;;;;;;5013515;28;20025;-51
2021/07/18 11:22:11;;;;;;;1.77;1.27;;;24.90;86.70;;;;;;5013141;28;20296;-53
2021/07/18 11:24:55;;;;;;;1.67;1.30;;;24.90;80.00;;;;;;5013213;28;20029;-53
2021/07/18 11:27:28;;;;;;;2.58;1.13;;;24.90;79.80;;;;;;5013441;28;20030;-52
2021/07/18 11:29:55;;;;;;;2.17;0.95;;;24.90;84.50;;;;;;5012939;28;20038;-52
2021/07/18 11:32:24;;;;;;;2.63;1.50;;;25.10;86.80;;;;;;5013035;28;20026;-53
2021/07/18 11:34:50;;;;;;;2.42;1.13;;;;;;;;;;5013068;28;20518;-53
2021/07/18 11:37:16;;;;;;;2.33;0.85;;;;;;;;;;5013245;28;20068;-54
2021/07/18 11:39:43;;;;;;;4.05;1.33;;;;;;;;;;5012877;28;20094;-54
2021/07/18 11:42:12;;;;;;;1.50;0.80;;;25.30;86.50;;;;;;5012965;28;20493;-53
2021/07/18 11:44:40;;;;;;;1.50;1.20;;;24.90;86.00;;;;;;5012848;28;20022;-52
2021/07/18 11:47:09;;;;;;;1.33;0.93;;;25.10;85.90;;;;;;5012736;28;20078;-51
2021/07/18 11:49:37;;;;;;;2.05;0.90;;;25.20;85.60;;;;;;5012641;28;20477;-54
2021/07/18 11:52:04;;;;;;;1.60;1.17;;;24.90;83.40;;;;;;5013078;28;20397;-51
2021/07/18 11:54:30;;;;;;;1.33;1.10;;;;;;;;;;5013115;28;20030;-52
2021/07/18 11:56:56;;;;;;;2.60;1.40;;;;;;;;;;5012828;28;20022;-55
2021/07/18 11:59:24;;;;;;;3.25;1.05;;;25.10;86.70;;;;;;5012990;28;20076;-54
2021/07/18 12:01:52;;;;;;;2.95;1.17;;;25.10;87.00;;;;;;5012247;28;20018;-54
2021/07/18 12:04:23;;;;;;;2.40;1.10;;;25.10;87.00;;;;;;5012979;28;20026;-51
2021/07/18 12:07:07;;;;;;;2.35;1.17;;;25.10;80.30;;;;;;5012703;28;20022;-51
2021/07/18 12:09:38;;;;;;;1.20;1.10;;;25.50;87.20;;;;;;5012749;28;20464;-51
2021/07/18 12:12:06;;;;;;;2.80;1.20;;;25.10;87.30;;;;;;5012825;28;20025;-53
2021/07/18 12:14:35;;;;;;;3.92;1.33;;;;;;;;;;5012611;28;20018;-53
2021/07/18 12:17:03;;;;;;;2.05;1.25;;;25.10;86.20;;;;;;5012533;28;20029;-54
2021/07/18 12:19:32;;;;;;;3.00;1.35;;;25.30;86.80;;;;;;5012679;28;20022;-50
2021/07/18 12:21:59;;;;;;;2.13;1.13;;;25.20;86.60;;;;;;5012695;28;20084;-53
2021/07/18 12:24:30;;;;;;;2.33;0.98;;;25.20;86.50;;;;;;5012799;28;20068;-53
2021/07/18 12:27:03;;;;;;;3.13;1.20;;;25.20;80.10;;;;;;5012504;28;20022;-53
2021/07/18 12:29:39;;;;;;;1.65;1.35;;;25.10;86.10;;;;;;5012790;28;20046;-53
2021/07/18 12:32:07;;;;;;;6.55;1.30;;;25.20;86.40;;;;;;5012424;28;20026;-54
2021/07/18 12:34:37;;;;;;;3.05;1.20;;;25.20;86.00;;;;;;5012483;28;20072;-55
2021/07/18 12:37:14;;;;;;;2.72;1.35;;;25.10;78.90;;;;;;5012411;28;20029;-52
2021/07/18 12:39:45;;;;;;;4.72;1.30;;;25.20;79.60;;;;;;5012374;28;20025;-54
2021/07/18 12:42:38;;;;;;;1.95;1.20;;;25.20;79.40;;;;;;5012675;28;20048;-55
2021/07/18 12:45:21;;;;;;;2.90;1.48;;;25.30;79.60;;;;;;5012391;28;20018;-54
2021/07/18 12:47:48;;;;;;;2.67;1.25;;;25.20;85.70;;;;;;5012298;28;20041;-54
2021/07/18 12:50:15;;;;;;;2.72;1.20;;;25.00;85.80;;;;;;5012294;28;20485;-54
2021/07/18 12:52:51;;;;;;;2.30;1.10;;;25.20;79.70;;;;;;5012588;28;20030;-54
2021/07/18 12:55:24;;;;;;;2.20;1.50;;;25.20;85.70;;;;;;5012424;28;20030;-53
2021/07/18 12:57:50;;;;;;;2.75;1.40;;;;;;;;;;5012360;28;20030;-50
2021/07/18 13:00:21;;;;;;;2.40;1.35;;;25.20;85.40;;;;;;5012290;28;20029;-54
2021/07/18 13:02:47;;;;;;;2.03;1.48;;;;;;;;;;5012278;28;20367;-52
2021/07/18 13:05:13;;;;;;;1.65;1.00;;;;;;;;;;5012212;28;20080;-55
2021/07/18 13:07:39;;;;;;;2.50;1.42;;;25.30;83.60;;;;;;5012187;28;20034;-54
2021/07/18 13:10:17;;;;;;;2.63;1.80;;;25.30;80.40;;;;;;5012010;28;20040;-55
2021/07/18 13:12:44;;;;;;;2.67;1.38;;;25.20;85.20;;;;;;5012173;28;20026;-50
2021/07/18 13:15:14;;;;;;;2.65;1.25;;;25.30;80.10;;;;;;5015348;28;20030;-51
2021/07/18 13:17:51;;;;;;;1.70;1.40;;;25.20;80.10;;;;;;5015798;28;20030;-53
2021/07/18 13:20:18;;;;;;;2.42;1.30;;;25.30;86.30;;;;;;5015755;28;20022;-54
2021/07/18 13:22:45;;;;;;;2.88;1.65;;;;;;;;;;5015735;28;20026;-52
2021/07/18 13:25:27;;;;;;;1.50;1.20;;;25.30;79.90;;;;;;5015647;28;20038;-52
2021/07/18 13:27:58;;;;;;;2.47;1.65;;;25.20;78.90;;;;;;5015672;28;20105;-53
2021/07/18 13:30:25;;;;;;;2.13;1.70;;;25.20;86.30;;;;;;5015464;28;20088;-50
2021/07/18 13:32:53;;;;;;;2.40;1.38;;;;;;;;;;5015738;28;20045;-53
2021/07/18 13:35:21;;;;;;;2.55;1.33;;;25.20;86.60;;;;;;5015301;28;20066;-54
2021/07/18 13:37:58;;;;;;;2.42;1.77;;;25.20;80.30;;;;;;5015065;28;20025;-52
2021/07/18 13:40:39;;;;;;;2.05;1.58;;;25.20;80.80;;;;;;5015535;28;20018;-51
2021/07/18 13:43:17;;;;;;;1.88;1.67;;;25.20;80.70;;;;;;5015185;28;20045;-55
2021/07/18 13:45:49;;;;;;;2.72;1.83;;;25.30;87.30;;;;;;5015084;28;20046;-56
2021/07/18 13:48:24;;;;;;;2.63;1.63;;;25.20;80.40;;;;;;5014849;28;20038;-52
2021/07/18 13:50:52;;;;;;;2.78;1.55;;;25.10;87.10;;;;;;5014933;28;20034;-51
2021/07/18 13:53:18;;;;;;;4.70;1.92;;;;;;;;;;4997145;28;20486;-55
2021/07/18 13:55:45;;;;;;;3.38;1.60;;;25.00;83.90;;;;;;5014795;28;20470;-54
2021/07/18 13:58:11;;;;;;;1.85;1.50;;;;;;;;;;5014747;28;20030;-53
2021/07/18 14:00:39;;;;;;;2.90;1.90;;;25.10;87.10;;;;;;5014821;28;20112;-51
2021/07/18 14:03:05;;;;;;;4.78;1.85;;;;;;;;;;5014957;28;20359;-52
2021/07/18 14:05:31;;;;;;;1.40;1.30;;;;;;;;;;5014608;28;20042;-51
2021/07/18 14:07:58;;;;;;;1.83;1.55;;;;;;;;;;5014465;28;20029;-52
2021/07/18 14:10:24;;;;;;;1.73;1.27;;;;;;;;;;5014497;28;20034;-50
2021/07/18 14:12:50;;;;;;;1.83;1.70;;;;;;;;;;5014543;28;20026;-51
2021/07/18 14:15:18;;;;;;;4.30;2.25;;;25.00;87.50;;;;;;5014343;28;20041;-52
2021/07/18 14:17:44;;;;;;;1.48;1.38;;;25.10;85.90;;;;;;5014503;28;20494;-49
2021/07/18 14:20:12;;;;;;;3.13;1.67;;;25.40;88.00;;;;;;5014543;28;20390;-55
2021/07/18 14:22:39;;;;;;;3.30;1.80;;;;;;;;;;5014359;28;20022;-53
2021/07/18 14:25:09;;;;;;;4.50;2.00;;;25.10;81.70;;;;;;5013837;28;20475;-53
2021/07/18 14:27:36;;;;;;;1.90;1.80;;;25.00;86.80;;;;;;5014194;28;20026;-50
2021/07/18 14:30:06;;;;;;;2.10;1.90;;;24.70;88.30;;;;;;5014133;28;20044;-52
2021/07/18 14:32:32;;;;;;;2.30;1.92;;;;;;;;;;5014015;28;20145;-52
2021/07/18 14:34:57;;;;;;;1.98;1.70;;;;;;;;;;5014087;28;20117;-54
2021/07/18 14:37:23;;;;;;;2.20;1.70;;;;;;;;;;5014004;28;20029;-52
2021/07/18 14:39:49;;;;;;;2.20;2.00;;;;;;;;;;5013942;28;20072;-51
2021/07/18 14:42:17;;;;;;;3.28;1.75;;;;;;;;;;5013867;28;20505;-51
2021/07/18 14:44:43;;;;;;;2.50;1.50;;;;;;;;;;5014166;28;20053;-51
2021/07/18 14:47:09;;;;;;;1.98;1.88;;;;;;;;;;5013684;28;20402;-53
2021/07/18 14:49:35;;;;;;;2.22;1.58;;;;;;;;;;5013691;28;20498;-50
2021/07/18 14:52:03;;;;;;;3.55;1.85;;;25.00;87.60;;;;;;4996147;28;20038;-50